createdAt,value
2018-09-15T00:00:42.355Z,100710.38
2018-09-15T00:03:10.733Z,100712.04
2018-09-15T00:05:39.176Z,100711.75
2018-09-15T00:08:07.545Z,100711.49
2018-09-15T00:10:35.922Z,100710.92
2018-09-15T00:13:04.327Z,100712.57
2018-09-15T00:15:32.718Z,100711.75
2018-09-15T00:18:02.586Z,100712.86
2018-09-15T00:20:31.014Z,100711.75
2018-09-15T00:22:59.420Z,100710.10
2018-09-15T00:25:27.838Z,100717.51
2018-09-15T00:27:56.215Z,100720.78
2018-09-15T00:30:24.699Z,100708.73
2018-09-15T00:32:53.918Z,100702.19
2018-09-15T00:35:22.294Z,100709.03
2018-09-15T00:37:50.862Z,100707.13
2018-09-15T00:40:19.271Z,100718.31
2018-09-15T00:42:47.858Z,100717.48
2018-09-15T00:45:16.279Z,100715.04
2018-09-15T00:47:44.693Z,100717.52
2018-09-15T00:50:13.096Z,100716.96
2018-09-15T00:52:41.653Z,100716.40
2018-09-15T00:55:10.106Z,100712.80
2018-09-15T00:57:38.513Z,100722.10
2018-09-15T01:00:07.847Z,100707.61
2018-09-15T01:02:36.541Z,100717.17
2018-09-15T01:05:05.324Z,100711.42
2018-09-15T01:07:33.772Z,100709.52
2018-09-15T01:10:02.291Z,100716.35
2018-09-15T01:12:30.701Z,100713.33
2018-09-15T01:14:59.086Z,100724.00
2018-09-15T01:17:27.525Z,100727.80
2018-09-15T01:19:55.957Z,100726.99
2018-09-15T01:22:24.319Z,100726.71
2018-09-15T01:24:52.698Z,100728.33
2018-09-15T01:27:21.125Z,100738.44
2018-09-15T01:29:49.518Z,100735.13
2018-09-15T01:32:17.989Z,100734.84
2018-09-15T01:34:46.428Z,100738.92
2018-09-15T01:37:14.830Z,100739.98
2018-09-15T01:39:43.221Z,100743.27
2018-09-15T01:42:11.641Z,100748.16
2018-09-15T01:44:40.017Z,100744.02
2018-09-15T01:47:08.471Z,100732.19
2018-09-15T01:49:36.882Z,100752.41
2018-09-15T01:52:05.345Z,100756.73
2018-09-15T01:54:33.741Z,100756.96
2018-09-15T01:57:02.154Z,100757.20
2018-09-15T01:59:30.557Z,100759.92
2018-09-15T02:01:59.037Z,100756.57
2018-09-15T02:04:27.418Z,100760.30
2018-09-15T02:06:55.857Z,100754.83
2018-09-15T02:09:24.217Z,100755.34
2018-09-15T02:11:52.657Z,100754.20
2018-09-15T02:14:21.069Z,100757.12
2018-09-15T02:16:49.478Z,100757.05
2018-09-15T02:19:17.847Z,100757.54
2018-09-15T02:21:46.237Z,100755.30
2018-09-15T02:24:14.661Z,100753.05
2018-09-15T02:26:43.069Z,100752.77
2018-09-15T02:29:11.458Z,100747.52
2018-09-15T02:31:39.843Z,100752.41
2018-09-15T02:34:08.350Z,100756.47
2018-09-15T02:36:36.758Z,100753.69
2018-09-15T02:39:07.509Z,100757.78
2018-09-15T02:41:35.946Z,100762.34
2018-09-15T02:44:04.358Z,100762.84
2018-09-15T02:46:32.741Z,100758.75
2018-09-15T02:49:01.153Z,100759.29
2018-09-15T02:51:29.526Z,100765.80
2018-09-15T02:53:57.910Z,100762.45
2018-09-15T02:56:26.294Z,100759.06
2018-09-15T02:58:54.700Z,100764.71
2018-09-15T03:01:23.076Z,100761.95
2018-09-15T03:03:51.469Z,100762.48
2018-09-15T03:06:19.839Z,100761.36
2018-09-15T03:08:48.214Z,100761.92
2018-09-15T03:11:16.562Z,100758.83
2018-09-15T03:13:44.973Z,100759.48
2018-09-15T03:16:13.342Z,100754.98
2018-09-15T03:18:41.722Z,100757.62
2018-09-15T03:21:10.102Z,100756.95
2018-09-15T03:23:38.481Z,100756.80
2018-09-15T03:26:06.913Z,100748.86
2018-09-15T03:28:35.298Z,100751.05
2018-09-15T03:31:03.677Z,100759.66
2018-09-15T03:33:32.045Z,100756.63
2018-09-15T03:36:00.406Z,100759.03
2018-09-15T03:38:28.817Z,100760.88
2018-09-15T03:40:57.203Z,100762.50
2018-09-15T03:43:25.680Z,100762.77
2018-09-15T03:45:54.061Z,100758.69
2018-09-15T03:48:22.525Z,100757.11
2018-09-15T03:50:50.873Z,100756.70
2018-09-15T03:53:19.258Z,100760.03
2018-09-15T03:55:47.625Z,100763.33
2018-09-15T03:58:16.005Z,100758.16
2018-09-15T04:00:44.413Z,100768.80
2018-09-15T04:03:12.798Z,100766.31
2018-09-15T04:05:41.265Z,100769.34
2018-09-15T04:08:09.661Z,100778.86
2018-09-15T04:10:38.053Z,100773.95
2018-09-15T04:13:06.430Z,100778.94
2018-09-15T04:15:34.841Z,100772.92
2018-09-15T04:18:03.219Z,100780.22
2018-09-15T04:20:31.572Z,100776.97
2018-09-15T04:22:59.941Z,100779.39
2018-09-15T04:25:28.309Z,100782.45
2018-09-15T04:27:56.770Z,100780.48
2018-09-15T04:30:25.178Z,100784.30
2018-09-15T04:32:53.597Z,100782.90
2018-09-15T04:35:21.977Z,100790.00
2018-09-15T04:37:50.344Z,100791.59
2018-09-15T04:40:18.728Z,100797.86
2018-09-15T04:42:47.081Z,100794.31
2018-09-15T04:45:15.461Z,100789.92
2018-09-15T04:47:43.822Z,100790.58
2018-09-15T04:50:12.227Z,100788.08
2018-09-15T04:52:40.677Z,100785.14
2018-09-15T04:55:09.087Z,100789.48
2018-09-15T04:57:37.466Z,100794.34
2018-09-15T05:00:05.916Z,100791.59
2018-09-15T05:02:34.401Z,100796.72
2018-09-15T05:05:02.858Z,100801.95
2018-09-15T05:07:31.298Z,100794.66
2018-09-15T05:09:59.714Z,100799.83
2018-09-15T05:12:28.287Z,100802.25
2018-09-15T05:14:56.668Z,100801.89
2018-09-15T05:17:25.049Z,100806.55
2018-09-15T05:19:53.441Z,100809.48
2018-09-15T05:22:21.905Z,100805.01
2018-09-15T05:24:50.340Z,100809.05
2018-09-15T05:27:18.724Z,100814.31
2018-09-15T05:29:47.124Z,100812.21
2018-09-15T05:32:15.523Z,100819.89
2018-09-15T05:34:43.929Z,100816.95
2018-09-15T05:37:12.335Z,100824.81
2018-09-15T05:39:40.745Z,100820.55
2018-09-15T05:42:09.123Z,100825.77
2018-09-15T05:44:37.550Z,100824.48
2018-09-15T05:47:06.267Z,100823.88
2018-09-15T05:49:34.701Z,100817.73
2018-09-15T05:52:03.086Z,100823.52
2018-09-15T05:54:31.490Z,100823.34
2018-09-15T05:56:59.865Z,100826.33
2018-09-15T05:59:28.257Z,100829.24
2018-09-15T06:01:56.665Z,100838.36
2018-09-15T06:04:25.100Z,100842.33
2018-09-15T06:06:54.182Z,100841.08
2018-09-15T06:09:22.574Z,100843.64
2018-09-15T06:11:50.964Z,100842.31
2018-09-15T06:14:19.346Z,100849.30
2018-09-15T06:16:47.743Z,100851.39
2018-09-15T06:19:16.157Z,100847.42
2018-09-15T06:21:44.563Z,100857.27
2018-09-15T06:24:13.077Z,100857.02
2018-09-15T06:26:41.604Z,100849.77
2018-09-15T06:29:10.053Z,100861.59
2018-09-15T06:31:38.506Z,100850.73
2018-09-15T06:34:06.960Z,100836.80
2018-09-15T06:36:35.429Z,100865.57
2018-09-15T06:39:04.665Z,100863.81
2018-09-15T06:41:33.092Z,100873.98
2018-09-15T06:44:01.465Z,100876.79
2018-09-15T06:46:29.877Z,100878.20
2018-09-15T06:48:58.265Z,100880.48
2018-09-15T06:51:26.733Z,100886.00
2018-09-15T06:53:55.117Z,100884.98
2018-09-15T06:56:23.529Z,100884.25
2018-09-15T06:58:51.941Z,100885.91
2018-09-15T07:01:20.325Z,100882.92
2018-09-15T07:03:48.723Z,100895.28
2018-09-15T07:06:17.190Z,100898.31
2018-09-15T07:08:45.550Z,100904.11
2018-09-15T07:11:13.946Z,100900.02
2018-09-15T07:13:42.309Z,100908.02
2018-09-15T07:16:10.700Z,100896.27
2018-09-15T07:18:39.130Z,100899.84
2018-09-15T07:21:07.722Z,100907.80
2018-09-15T07:23:36.074Z,100904.55
2018-09-15T07:26:04.513Z,100904.28
2018-09-15T07:28:32.882Z,100911.71
2018-09-15T07:31:01.328Z,100921.84
2018-09-15T07:33:29.706Z,100920.79
2018-09-15T07:35:58.095Z,100926.84
2018-09-15T07:38:26.485Z,100929.06
2018-09-15T07:40:54.849Z,100929.05
2018-09-15T07:43:23.224Z,100927.13
2018-09-15T07:45:51.697Z,100926.86
2018-09-15T07:48:20.079Z,100929.12
2018-09-15T07:50:48.461Z,100938.97
2018-09-15T07:53:16.817Z,100939.52
2018-09-15T07:55:45.248Z,100935.95
2018-09-15T07:58:14.640Z,100928.53
2018-09-15T08:00:43.064Z,100938.63
2018-09-15T08:03:11.412Z,100930.94
2018-09-15T08:05:39.914Z,100930.65
2018-09-15T08:08:08.287Z,100937.80
2018-09-15T08:10:36.671Z,100941.12
2018-09-15T08:13:05.050Z,100943.28
2018-09-15T08:15:33.835Z,100942.43
2018-09-15T08:18:02.216Z,100944.64
2018-09-15T08:20:30.640Z,100945.23
2018-09-15T08:22:59.035Z,100952.88
2018-09-15T08:25:27.457Z,100946.01
2018-09-15T08:27:55.852Z,100947.33
2018-09-15T08:30:24.369Z,100950.33
2018-09-15T08:32:52.769Z,100954.42
2018-09-15T08:35:21.176Z,100948.52
2018-09-15T08:37:49.594Z,100948.65
2018-09-15T08:40:17.998Z,100953.91
2018-09-15T08:42:46.825Z,100964.35
2018-09-15T08:45:15.269Z,100966.81
2018-09-15T08:47:43.682Z,100961.55
2018-09-15T08:50:12.094Z,100964.95
2018-09-15T08:52:40.490Z,100954.36
2018-09-15T08:55:08.865Z,100948.08
2018-09-15T08:57:37.289Z,100969.14
2018-09-15T09:00:05.737Z,100965.38
2018-09-15T09:02:34.138Z,100974.74
2018-09-15T09:05:02.521Z,100963.19
2018-09-15T09:07:30.929Z,100971.45
2018-09-15T09:09:59.455Z,100977.15
2018-09-15T09:12:27.869Z,100974.61
2018-09-15T09:14:56.233Z,100981.41
2018-09-15T09:17:24.618Z,100975.27
2018-09-15T09:19:53.122Z,100984.88
2018-09-15T09:22:21.553Z,100987.92
2018-09-15T09:24:50.025Z,100990.16
2018-09-15T09:27:18.421Z,100982.90
2018-09-15T09:29:46.778Z,100993.32
2018-09-15T09:32:15.263Z,101000.19
2018-09-15T09:34:43.718Z,101003.70
2018-09-15T09:37:12.138Z,101001.14
2018-09-15T09:39:43.421Z,101000.53
2018-09-15T09:42:11.913Z,100994.30
2018-09-15T09:44:40.362Z,100990.47
2018-09-15T09:47:09.973Z,101000.74
2018-09-15T09:49:38.454Z,100989.97
2018-09-15T09:52:06.925Z,100982.63
2018-09-15T09:54:35.365Z,100993.95
2018-09-15T09:57:03.841Z,100990.69
2018-09-15T09:59:32.240Z,100994.59
2018-09-15T10:02:03.068Z,100993.45
2018-09-15T10:04:32.251Z,101003.45
2018-09-15T10:07:00.748Z,100994.40
2018-09-15T10:09:29.148Z,100994.53
2018-09-15T10:11:57.568Z,101003.47
2018-09-15T10:14:25.985Z,101000.75
2018-09-15T10:16:54.361Z,101004.84
2018-09-15T10:19:22.773Z,101009.70
2018-09-15T10:21:51.203Z,100990.28
2018-09-15T10:24:19.877Z,100991.36
2018-09-15T10:26:48.346Z,100995.69
2018-09-15T10:29:16.721Z,100989.77
2018-09-15T10:31:45.159Z,100988.41
2018-09-15T10:34:14.090Z,100985.12
2018-09-15T10:36:42.671Z,100979.27
2018-09-15T10:39:12.173Z,100980.88
2018-09-15T10:48:41.375Z,100984.81
2018-09-15T10:51:09.765Z,100985.94
2018-09-15T10:53:38.147Z,100990.09
2018-09-15T10:56:06.628Z,100994.08
2018-09-15T10:58:35.095Z,100982.78
2018-09-15T11:01:03.581Z,100981.09
2018-09-15T11:03:31.983Z,100969.52
2018-09-15T11:06:00.536Z,100973.81
2018-09-15T11:08:28.932Z,100983.28
2018-09-15T11:10:57.333Z,100976.47
2018-09-15T11:13:25.915Z,100982.28
2018-09-15T11:15:54.227Z,100965.82
2018-09-15T11:18:22.684Z,100969.23
2018-09-15T11:20:51.127Z,100974.12
2018-09-15T11:23:19.603Z,100976.29
2018-09-15T11:25:48.018Z,100972.95
2018-09-15T11:28:16.484Z,100987.47
2018-09-15T11:30:45.046Z,100990.48
2018-09-15T11:33:13.454Z,100982.41
2018-09-15T11:35:41.879Z,100990.64
2018-09-15T11:38:10.292Z,100988.84
2018-09-15T11:40:38.725Z,100994.78
2018-09-15T11:43:07.130Z,100998.45
2018-09-15T11:45:35.584Z,100996.11
2018-09-15T11:48:04.174Z,100987.35
2018-09-15T11:50:32.619Z,100982.37
2018-09-15T11:53:01.115Z,100988.18
2018-09-15T11:55:29.567Z,100986.27
2018-09-15T11:57:58.022Z,100971.67
2018-09-15T12:00:28.399Z,100975.05
2018-09-15T12:02:56.835Z,100971.47
2018-09-15T12:05:25.270Z,100969.30
2018-09-15T12:07:53.825Z,100962.23
2018-09-15T12:10:22.225Z,100968.43
2018-09-15T12:12:50.770Z,100963.94
2018-09-15T12:15:19.522Z,100949.52
2018-09-15T12:17:48.025Z,100960.05
2018-09-15T12:20:16.446Z,100961.90
2018-09-15T12:22:44.858Z,100962.82
2018-09-15T12:25:13.263Z,100964.61
2018-09-15T12:27:41.677Z,100953.31
2018-09-15T12:30:10.079Z,100953.55
2018-09-15T12:32:38.481Z,100975.63
2018-09-15T12:35:06.971Z,100971.84
2018-09-15T12:37:35.366Z,100972.17
2018-09-15T12:40:03.906Z,100975.13
2018-09-15T12:42:32.295Z,100979.31
2018-09-15T12:45:00.897Z,100976.12
2018-09-15T12:47:29.217Z,100967.44
2018-09-15T12:50:00.982Z,100962.84
2018-09-15T12:52:29.422Z,100974.31
2018-09-15T12:54:57.854Z,100972.14
2018-09-15T12:57:26.255Z,100972.08
2018-09-15T12:59:54.686Z,100961.25
2018-09-15T13:02:23.103Z,100970.82
2018-09-15T13:04:51.588Z,100963.73
2018-09-15T13:07:20.056Z,100976.55
2018-09-15T13:09:48.473Z,100973.13
2018-09-15T13:12:16.954Z,100972.87
2018-09-15T13:14:45.409Z,100977.55
2018-09-15T13:17:13.814Z,100973.66
2018-09-15T13:19:42.266Z,100966.58
2018-09-15T13:22:10.745Z,100973.67
2018-09-15T13:24:39.179Z,100979.41
2018-09-15T13:27:08.141Z,100975.36
2018-09-15T13:29:36.636Z,100974.45
2018-09-15T13:32:05.223Z,100966.86
2018-09-15T13:34:34.074Z,100963.89
2018-09-15T13:37:02.709Z,100959.33
2018-09-15T13:39:31.121Z,100959.48
2018-09-15T13:41:59.503Z,100954.05
2018-09-15T13:44:27.906Z,100951.09
2018-09-15T13:46:57.349Z,100956.75
2018-09-15T13:49:25.738Z,100946.52
2018-09-15T13:51:54.122Z,100955.46
2018-09-15T13:54:22.559Z,100949.67
2018-09-15T13:56:51.720Z,100947.25
2018-09-15T13:59:20.095Z,100939.53
2018-09-15T14:01:48.552Z,100941.06
2018-09-15T14:04:16.988Z,100954.40
2018-09-15T14:06:45.389Z,100955.50
2018-09-15T14:09:13.816Z,100949.93
2018-09-15T14:11:42.246Z,100965.42
2018-09-15T14:14:10.625Z,100959.91
2018-09-15T14:16:39.076Z,100963.20
2018-09-15T14:19:07.499Z,100963.11
2018-09-15T14:21:35.949Z,100964.64
2018-09-15T14:24:04.503Z,100971.14
2018-09-15T14:26:32.906Z,100974.92
2018-09-15T14:29:01.302Z,100971.97
2018-09-15T14:31:29.702Z,100967.48
2018-09-15T14:33:58.124Z,100969.06
2018-09-15T14:36:26.538Z,100976.14
2018-09-15T14:38:54.965Z,100970.28
2018-09-15T14:41:23.374Z,100971.56
2018-09-15T14:43:51.783Z,100965.23
2018-09-15T14:46:20.197Z,100980.56
2018-09-15T14:48:48.729Z,100976.36
2018-09-15T14:51:17.124Z,100987.94
2018-09-15T14:53:45.522Z,100972.95
2018-09-15T14:56:13.946Z,100967.23
2018-09-15T14:58:42.323Z,100973.16
2018-09-15T15:01:10.698Z,100973.02
2018-09-15T15:03:40.867Z,100972.64
2018-09-15T15:06:09.441Z,100970.84
2018-09-15T15:08:37.810Z,100967.16
2018-09-15T15:11:06.189Z,100968.53
2018-09-15T15:13:34.681Z,100968.90
2018-09-15T15:16:03.033Z,100969.14
2018-09-15T15:18:31.507Z,100971.14
2018-09-15T15:20:59.940Z,100960.62
2018-09-15T15:23:28.434Z,100961.93
2018-09-15T15:25:56.872Z,100960.67
2018-09-15T15:28:25.451Z,100964.14
2018-09-15T15:30:53.914Z,100964.28
2018-09-15T15:33:22.315Z,100963.42
2018-09-15T15:35:50.718Z,100967.59
2018-09-15T15:38:19.129Z,100968.98
2018-09-15T15:40:47.553Z,100970.20
2018-09-15T15:43:16.080Z,100961.38
2018-09-15T15:45:44.800Z,100966.85
2018-09-15T15:48:13.187Z,100966.48
2018-09-15T15:50:41.833Z,100979.94
2018-09-15T15:53:10.242Z,100970.84
2018-09-15T15:55:39.048Z,100966.81
2018-09-15T15:58:07.500Z,100969.58
2018-09-15T16:00:35.868Z,100964.53
2018-09-15T16:03:04.261Z,100966.39
2018-09-15T16:05:32.721Z,100967.17
2018-09-15T16:08:01.151Z,100970.19
2018-09-15T16:10:29.543Z,100968.73
2018-09-15T16:12:57.954Z,100959.48
2018-09-15T16:15:26.356Z,100962.76
2018-09-15T16:17:54.742Z,100963.20
2018-09-15T16:20:23.165Z,100963.70
2018-09-15T16:22:51.601Z,100957.41
2018-09-15T16:25:19.981Z,100960.62
2018-09-15T16:27:49.004Z,100957.90
2018-09-15T16:30:17.381Z,100968.50
2018-09-15T16:32:45.862Z,100964.68
2018-09-15T16:35:14.273Z,100966.01
2018-09-15T16:37:43.018Z,100954.59
2018-09-15T16:40:11.427Z,100959.25
2018-09-15T16:42:39.907Z,100953.53
2018-09-15T16:45:08.323Z,100955.17
2018-09-15T16:47:36.809Z,100956.89
2018-09-15T16:50:05.332Z,100964.05
2018-09-15T16:52:33.761Z,100961.39
2018-09-15T16:55:02.247Z,100965.33
2018-09-15T16:57:30.753Z,100960.43
2018-09-15T16:59:59.177Z,100968.52
2018-09-15T17:02:27.928Z,100962.22
2018-09-15T17:04:56.380Z,100960.34
2018-09-15T17:07:25.841Z,100961.05
2018-09-15T17:09:54.330Z,100953.91
2018-09-15T17:12:22.790Z,100951.25
2018-09-15T17:14:51.256Z,100953.31
2018-09-15T17:17:19.718Z,100952.08
2018-09-15T17:19:48.232Z,100958.39
2018-09-15T17:22:16.702Z,100955.28
2018-09-15T17:24:45.152Z,100954.23
2018-09-15T17:27:13.629Z,100961.98
2018-09-15T17:29:42.237Z,100955.20
2018-09-15T17:32:10.985Z,100966.58
2018-09-15T17:34:39.437Z,100968.31
2018-09-15T17:37:08.045Z,100965.89
2018-09-15T17:39:36.710Z,100965.66
2018-09-15T17:42:05.183Z,100969.30
2018-09-15T17:44:33.682Z,100970.69
2018-09-15T17:47:02.136Z,100963.02
2018-09-15T17:49:30.590Z,100964.42
2018-09-15T17:51:59.026Z,100964.99
2018-09-15T17:54:27.543Z,100968.55
2018-09-15T17:56:55.975Z,100973.48
2018-09-15T17:59:24.433Z,100981.43
2018-09-15T18:01:52.893Z,100982.52
2018-09-15T18:04:21.466Z,100984.98
2018-09-15T18:06:50.014Z,100986.08
2018-09-15T18:09:18.564Z,100980.87
2018-09-15T18:11:48.086Z,100986.08
2018-09-15T18:14:16.508Z,100989.30
2018-09-15T18:16:44.907Z,100990.94
2018-09-15T18:19:13.412Z,100988.48
2018-09-15T18:21:41.909Z,100996.14
2018-09-15T18:24:10.349Z,101005.69
2018-09-15T18:26:38.901Z,101007.87
2018-09-15T18:29:07.402Z,101003.78
2018-09-15T18:31:35.918Z,101005.64
2018-09-15T18:34:04.398Z,101006.48
2018-09-15T18:36:32.850Z,101017.92
2018-09-15T18:39:01.293Z,101013.80
2018-09-15T18:41:30.727Z,101009.66
2018-09-15T18:43:59.252Z,101011.03
2018-09-15T18:46:27.715Z,101013.70
2018-09-15T18:48:56.210Z,101017.55
2018-09-15T18:51:24.705Z,101015.88
2018-09-15T18:53:53.197Z,101014.78
2018-09-15T18:56:21.761Z,101015.88
2018-09-15T18:58:50.300Z,101017.44
2018-09-15T19:08:18.762Z,101036.53
2018-09-15T19:10:47.598Z,101035.41
2018-09-15T19:13:16.149Z,101037.25
2018-09-15T19:15:44.902Z,101036.88
2018-09-15T19:18:13.758Z,101038.70
2018-09-15T19:20:42.289Z,101042.69
2018-09-15T19:23:11.484Z,101041.80
2018-09-15T19:25:40.118Z,101046.53
2018-09-15T19:28:09.082Z,101043.00
2018-09-15T19:30:37.848Z,101045.42
2018-09-15T19:33:06.374Z,101043.73
2018-09-15T19:35:35.342Z,101045.42
2018-09-15T19:38:03.805Z,101039.34
2018-09-15T19:40:32.284Z,101044.13
2018-09-15T19:43:00.882Z,101042.20
2018-09-15T19:45:29.590Z,101044.32
2018-09-15T19:47:58.315Z,101042.19
2018-09-15T19:50:26.806Z,101049.09
2018-09-15T19:52:55.290Z,101052.09
2018-09-15T19:55:24.511Z,101057.81
2018-09-15T19:57:53.231Z,101050.87
2018-09-15T20:00:21.748Z,101052.86
2018-09-15T20:02:50.235Z,101059.84
2018-09-15T20:05:19.932Z,101056.05
2018-09-15T20:07:48.439Z,101056.16
2018-09-15T20:10:17.030Z,101054.37
2018-09-15T20:12:45.606Z,101054.58
2018-09-15T20:15:27.333Z,101050.34
2018-09-15T20:17:54.713Z,101048.67
2018-09-15T20:20:22.831Z,101049.66
2018-09-15T20:22:52.843Z,101050.72
2018-09-15T20:25:21.322Z,101048.78
2018-09-15T20:27:49.883Z,101055.64
2018-09-15T20:30:18.484Z,101060.45
2018-09-15T20:32:47.058Z,101060.75
2018-09-15T20:35:15.949Z,101058.78
2018-09-15T20:37:44.509Z,101056.24
2018-09-15T20:40:13.082Z,101055.59
2018-09-15T20:42:41.543Z,101056.61
2018-09-15T20:45:11.088Z,101061.94
2018-09-15T20:47:39.770Z,101028.05
2018-09-15T20:50:08.774Z,101067.25
2018-09-15T20:52:37.301Z,101065.75
2018-09-15T20:55:06.223Z,101069.70
2018-09-15T20:57:35.012Z,101061.09
2018-09-15T21:00:03.606Z,101065.92
2018-09-15T21:02:32.082Z,101066.54
2018-09-15T21:05:00.596Z,101061.61
2018-09-15T21:07:29.120Z,101061.34
2018-09-15T21:09:57.857Z,101062.80
2018-09-15T21:12:26.302Z,101061.58
2018-09-15T21:14:54.926Z,101057.44
2018-09-15T21:17:23.652Z,101071.30
2018-09-15T21:19:52.202Z,101066.64
2018-09-15T21:22:20.629Z,101068.27
2018-09-15T21:24:49.180Z,101068.00
2018-09-15T21:27:17.656Z,101066.80
2018-09-15T21:29:46.109Z,101064.39
2018-09-15T21:32:14.560Z,101067.63
2018-09-15T21:34:43.056Z,101066.85
2018-09-15T21:37:11.605Z,101069.30
2018-09-15T21:39:40.866Z,101069.83
2018-09-15T21:42:09.408Z,101072.39
2018-09-15T21:44:37.896Z,101062.52
2018-09-15T21:47:06.620Z,101071.98
2018-09-15T21:49:35.150Z,101068.36
2018-09-15T21:52:03.793Z,101068.16
2018-09-15T21:54:32.322Z,101067.26
2018-09-15T21:57:00.789Z,101064.13
2018-09-15T21:59:29.380Z,101070.66
2018-09-15T22:01:58.042Z,101060.08
2018-09-15T22:04:26.592Z,101065.80
2018-09-15T22:06:55.182Z,101076.58
2018-09-15T22:09:24.171Z,101071.97
2018-09-15T22:11:53.107Z,101072.52
2018-09-15T22:14:21.652Z,101078.80
2018-09-15T22:16:50.190Z,101083.41
2018-09-15T22:19:18.777Z,101079.30
2018-09-15T22:21:47.227Z,101082.05
2018-09-15T22:24:16.043Z,101084.53
2018-09-15T22:26:44.590Z,101090.95
2018-09-15T22:29:13.189Z,101089.13
2018-09-15T22:31:48.456Z,101080.73
2018-09-15T22:34:16.970Z,101080.07
2018-09-15T22:36:45.403Z,101074.63
2018-09-15T22:39:13.844Z,101078.45
2018-09-15T22:41:42.237Z,101075.86
2018-09-15T22:44:10.720Z,101070.52
2018-09-15T22:46:39.138Z,101070.59
2018-09-15T22:49:07.625Z,101071.77
2018-09-15T22:51:36.169Z,101071.24
2018-09-15T22:54:04.652Z,101073.25
2018-09-15T22:56:33.082Z,101061.89
2018-09-15T22:59:01.482Z,101066.64
2018-09-15T23:01:29.877Z,101067.30
2018-09-15T23:04:06.150Z,101068.86
2018-09-15T23:06:34.866Z,101066.27
2018-09-15T23:09:03.343Z,101063.85
2018-09-15T23:11:31.785Z,101067.93
2018-09-15T23:14:00.197Z,101066.44
2018-09-15T23:16:28.617Z,101053.81
2018-09-15T23:18:57.054Z,101053.69
2018-09-15T23:21:25.425Z,101057.03
2018-09-15T23:23:53.860Z,101054.56
2018-09-15T23:26:22.314Z,101053.01
2018-09-15T23:28:50.906Z,101050.47
2018-09-15T23:31:19.961Z,101048.59
2018-09-15T23:33:48.364Z,101040.38
2018-09-15T23:36:16.785Z,101040.16
2018-09-15T23:38:45.197Z,101041.23
2018-09-15T23:41:13.685Z,101036.45
2018-09-15T23:43:42.057Z,101039.09
2018-09-15T23:46:10.965Z,101033.28
2018-09-15T23:48:39.354Z,101036.11
2018-09-15T23:51:07.769Z,101032.80
2018-09-15T23:53:36.150Z,101033.08
2018-09-15T23:56:04.578Z,101026.47
2018-09-15T23:58:32.989Z,101026.87
